CZM weather

Cozumel International Airport
Cozumel, Quintana Roo, Mexico

Public forecast

Using degrees Celsius for public forecast. Weather courtesy of forecast.io.

METAR (pilot weather report)

Retrieved 2019/04/18 17:41 UTC (1 hour ago):

MMCZ 181741Z 17014KT 8SM SCT015 30/22 A2985 RMK SLP114 57003 986 8/100 SC

TAF (pilot weather forecast)

Retrieved 2019/04/18 18:23 UTC (19 minutes ago):

TAF MMCZ 181716Z 1818/1924 16015KT P6SM SCT015 FM190600 16015KT P6SM SCT020 SCT080 TEMPO 1912/1915 BKN015 FM191800 16015KT P6SM SCT015 BKN250